This is the latest recevied weather packets stored in our database for station/object K7GFH-13. If no packets are shown the sender has not sent any weather packets the latest 10 day(s).
| Time | Temp. | Humidity | Pressure | Rain* | Wind** | Luminosity | Snow |
|---|---|---|---|---|---|---|---|
| 1778213878 | 13.89° C | 61% | 1018.6 hPa | 0 mm | - | 0 W/m² | - |
| 1778212974 | 14.44° C | 59% | 1018.5 hPa | 0 mm | - | 0 W/m² | - |
| 1778212071 | 15° C | 61% | 1018.2 hPa | 0 mm | - | 0 W/m² | - |
| 1778211169 | 15.56° C | 56% | 1018 hPa | 0 mm | - | 1 W/m² | - |
| 1778210266 | 16.11° C | 53% | 1018 hPa | 0 mm | - | 6 W/m² | - |
| 1778209362 | 17.22° C | 50% | 1017.9 hPa | 0 mm | - | 13 W/m² | - |
| 1778208458 | 18.33° C | 43% | 1018.1 hPa | 0 mm | - | 21 W/m² | - |
| 1778207555 | 18.89° C | 44% | 1017.9 hPa | 0 mm | - | 32 W/m² | - |
| 1778206651 | 19.44° C | 42% | 1018.1 hPa | 0 mm | - | 56 W/m² | - |
| 1778205747 | 19.44° C | 40% | 1018.1 hPa | 0 mm | - | 101 W/m² | - |
| 1778204843 | 20° C | 41% | 1018.2 hPa | 0 mm | - | 124 W/m² | - |
| 1778203938 | 19.44° C | 41% | 1018.2 hPa | 0 mm | - | 65 W/m² | - |
| 1778203037 | 20° C | 42% | 1018.4 hPa | 0 mm | - | 136 W/m² | - |
| 1778202134 | 20° C | 40% | 1018.5 hPa | 0 mm | - | 205 W/m² | - |
| 1778201229 | 19.44° C | 43% | 1018.6 hPa | 0 mm | - | 270 W/m² | - |
| 1778200326 | 20° C | 43% | 1018.7 hPa | 0 mm | - | 338 W/m² | - |
| 1778199421 | 20° C | 41% | 1018.7 hPa | 0 mm | - | 403 W/m² | - |
| 1778198517 | 19.44° C | 42% | 1018.8 hPa | 0 mm | - | 286 W/m² | - |
| 1778197614 | 20° C | 43% | 1019 hPa | 0 mm | - | 441 W/m² | - |
| 1778196711 | 20.56° C | 43% | 1019.1 hPa | 0 mm | - | 473 W/m² | - |
| 1778195807 | 20.56° C | 42% | 1019.1 hPa | 0 mm | - | 513 W/m² | - |
| 1778194903 | 20° C | 44% | 1019.3 hPa | 0 mm | - | 557 W/m² | - |
| 1778194001 | 20° C | 47% | 1019.5 hPa | 0 mm | - | 582 W/m² | - |
| 1778193097 | 18.89° C | 49% | 1019.5 hPa | 0 mm | - | 636 W/m² | - |
| 1778192192 | 19.44° C | 50% | 1019.7 hPa | 0 mm | - | 633 W/m² | - |
* Rain latest hour (hover to see other rain measurements)
** Current wind speed in m/s (hover to see current wind gust speed)